LEMH/MAH METAR and TAF weather

Enter ICAO airport designator
Station Type Date Time Source
LEMH METAR 2020/01/18 13:00 UTC NOAA

LEMH 181300Z 22011KT 190V250 9999 SCT020 15/10 Q1027


Station Type Date Time Source
LEMH Decoded METAR 2020/01/18 13:00 UTC NOAA

Menorca / Mahon, Spain (LEMH) 39-52N 004-14E 82M
Jan 18, 2020 - 08:00 AM EST / 2020.01.18 1300 UTC
Wind: from the SW (220 degrees) at 13 MPH (11 KT) (direction variable):0
Visibility: greater than 7 mile(s):0
Sky conditions: partly cloudy
Temperature: 59 F (15 C)
Dew Point: 50 F (10 C)
Relative Humidity: 72%
Pressure (altimeter): 30.33 in. Hg (1027 hPa)
ob: LEMH 181300Z 22011KT 190V250 9999 SCT020 15/10 Q1027
cycle: 13

Station Type Date Time Source
LEMH TAF 2020/01/18 09:29 UTC NOAA

TAF LEMH 180800Z 1809/1909 VRB04KT 9999 SCT035 TX15/1813Z TN07/1906Z
BECMG 1809/1811 22010KT
BECMG 1822/1824 VRB04KT PROB40
TEMPO 1904/1909 05010KT 4000 SHRA BKN014 FEW020TCU

Example: see airport list